Grand Ridge, Florida
Current Conditions -  °F | °C
As of 2:53 PM on Friday 19 Dec 2014 (Local Time) from KMAI Reporting Station
Overcast Overcast  
Wind Chill: 59°   Ceiling: 11000
Heat Index: 59°   Visibility: 10mi
Dew Point: 40°   Wind: 6mph
Humidity: 49%   Direction: 80°E
Pressure: 30.07"   Gusts: NA
Location:  30.71°N, 85.02°W
Report Text: KMAI 192053Z AUTO 08005KT 10SM OVC110 15/04 A3007 RMK AO2 SLP181 T01500044 56037
Loading
Personal Weather Stations






























Interactive Weather Map New forecast layout! Learn more

10-Day Weather Forecast

Advertisements
Track Severe Weather on mobile